Time;durP1;ratioP1;P1;durP2;ratioP2;P2;SDS_P1;SDS_P2;PMS_P1;PMS_P2;Temp;Humidity;BMP_temperature;BMP_pressure;BME280_temperature;BME280_humidity;BME280_pressure;Samples;Min_cycle;Max_cycle;Signal;HPM_P1;HPM_P2
2023/09/04 00:00:07;;;;;;;6.57;3.28;;;17.60;79.40;;;16.61;100.00;96992.75;6113214;23;20016;-64
2023/09/04 00:02:33;;;;;;;3.80;2.97;;;17.60;79.40;;;16.59;100.00;96980.72;6086386;23;20014;-65
2023/09/04 00:04:59;;;;;;;3.85;2.80;;;17.60;79.50;;;16.57;100.00;96980.91;6111960;23;20018;-65
2023/09/04 00:07:24;;;;;;;4.07;3.15;;;17.60;79.50;;;16.57;100.00;96996.03;6112050;23;20040;-65
2023/09/04 00:09:50;;;;;;;3.63;3.00;;;17.60;79.30;;;16.49;100.00;96984.56;6137479;23;20014;-66
2023/09/04 00:12:16;;;;;;;3.28;2.72;;;17.50;79.60;;;16.49;100.00;96987.22;6087983;23;20080;-66
2023/09/04 00:14:42;;;;;;;3.42;2.70;;;17.50;79.70;;;16.48;100.00;96985.59;6111647;23;20010;-65
2023/09/04 00:17:07;;;;;;;4.22;2.80;;;17.60;79.60;;;16.48;100.00;96993.56;6112647;23;20037;-66
2023/09/04 00:19:34;;;;;;;4.60;2.70;;;17.50;79.60;;;16.47;100.00;96991.94;6111897;23;20593;-66
2023/09/04 00:22:00;;;;;;;4.60;2.90;;;17.50;79.60;;;16.44;100.00;96992.34;6085863;23;20008;-65
2023/09/04 00:24:26;;;;;;;3.97;2.88;;;17.50;79.60;;;16.43;100.00;96993.38;6088909;23;20021;-65
2023/09/04 00:26:52;;;;;;;4.88;3.20;;;17.50;79.50;;;16.41;100.00;96991.94;6112440;23;20025;-66
2023/09/04 00:29:17;;;;;;;3.28;2.90;;;17.50;79.50;;;16.39;100.00;96999.28;6090106;23;20009;-65
2023/09/04 00:31:43;;;;;;;4.97;3.10;;;17.50;79.50;;;16.36;100.00;96995.22;6087814;23;20555;-65
2023/09/04 00:34:09;;;;;;;3.38;3.03;;;17.40;79.60;;;16.35;100.00;96998.88;6111978;23;20085;-66
2023/09/04 00:36:35;;;;;;;3.60;3.30;;;17.30;79.70;;;16.34;100.00;97002.56;6089029;23;20033;-65
2023/09/04 00:39:00;;;;;;;4.35;3.45;;;17.30;79.70;;;16.31;100.00;97002.97;6113515;23;20064;-65
2023/09/04 00:41:26;;;;;;;4.63;3.03;;;17.30;79.90;;;16.27;100.00;97000.91;6086883;23;20070;-66
2023/09/04 00:43:52;;;;;;;4.05;3.15;;;17.30;79.90;;;16.25;100.00;96998.47;6112526;23;20041;-66
2023/09/04 00:46:18;;;;;;;3.13;2.83;;;17.20;79.90;;;16.24;100.00;96997.63;6113961;23;20033;-66
2023/09/04 00:48:44;;;;;;;3.92;3.20;;;17.20;79.70;;;16.21;100.00;96997.22;6109754;23;20455;-67
2023/09/04 00:51:10;;;;;;;3.72;3.25;;;17.20;79.60;;;16.20;100.00;96992.94;6088827;23;20037;-67
2023/09/04 00:53:37;;;;;;;3.22;2.92;;;17.20;79.50;;;16.16;100.00;97000.50;6088748;23;20407;-66
2023/09/04 00:56:03;;;;;;;4.45;3.13;;;17.20;79.50;;;16.14;100.00;97002.53;6113570;23;20028;-66
2023/09/04 00:58:28;;;;;;;6.22;3.10;;;17.10;79.50;;;16.12;100.00;96993.16;6088936;23;20104;-66
2023/09/04 01:00:54;;;;;;;3.83;2.92;;;17.10;79.50;;;16.10;100.00;96988.03;6086238;23;20065;-65
2023/09/04 01:03:21;;;;;;;5.30;3.03;;;17.10;79.60;;;16.09;100.00;96982.94;6087727;23;20010;-66
2023/09/04 01:05:46;;;;;;;4.47;3.22;;;17.10;79.60;;;16.08;100.00;96986.59;6111232;23;20006;-66
2023/09/04 01:08:13;;;;;;;4.28;3.20;;;17.10;79.60;;;16.03;100.00;96984.53;6111778;23;20029;-66
2023/09/04 01:11:21;;;;;;;4.05;2.88;;;17.10;79.60;;;16.02;100.00;96992.69;6111863;23;22417;-66
2023/09/04 01:13:51;;;;;;;5.03;3.20;;;17.10;79.90;;;15.99;100.00;96990.44;6064580;23;20010;-65
2023/09/04 01:16:17;;;;;;;3.28;2.97;;;17.00;79.70;;;15.97;100.00;96995.97;6109368;23;20026;-66
2023/09/04 01:18:44;;;;;;;5.22;3.15;;;17.00;79.80;;;15.95;100.00;96991.88;6086973;23;20081;-65
2023/09/04 01:21:09;;;;;;;4.00;2.83;;;16.90;79.90;;;15.92;100.00;96995.75;6087901;23;20028;-66
2023/09/04 01:23:35;;;;;;;4.10;3.00;;;16.90;79.80;;;15.89;100.00;96993.50;6111265;23;20455;-65
2023/09/04 01:26:24;;;;;;;6.10;3.33;;;16.90;79.90;;;15.87;100.00;96985.75;6112434;23;20014;-66
2023/09/04 01:29:13;;;;;;;6.40;3.83;;;16.80;79.80;;;15.83;100.00;96989.78;6086204;23;20044;-65
2023/09/04 01:31:50;;;;;;;4.20;3.35;;;16.80;79.70;;;15.80;100.00;96984.88;6115750;23;20017;-65
2023/09/04 01:34:23;;;;;;;4.90;3.47;;;16.80;79.60;;;15.75;100.00;96975.91;6064099;23;20092;-65
2023/09/04 01:36:49;;;;;;;3.83;3.42;;;16.80;79.50;;;15.72;100.00;96977.13;6062657;23;20020;-65
2023/09/04 01:39:14;;;;;;;6.65;3.40;;;16.80;79.40;;;15.69;100.00;96972.22;6086764;23;20010;-65
2023/09/04 01:41:40;;;;;;;4.97;3.85;;;16.70;79.60;;;15.68;100.00;96967.94;6082928;23;20090;-66
2023/09/04 01:44:06;;;;;;;5.05;3.58;;;16.70;79.70;;;15.65;100.00;96963.03;6089795;23;20645;-65
2023/09/04 01:46:33;;;;;;;4.55;3.28;;;16.70;79.70;;;15.64;100.00;96953.44;6114122;23;20009;-66
2023/09/04 01:48:59;;;;;;;4.18;3.35;;;16.70;79.50;;;15.61;100.00;96956.47;6066012;23;21921;-65
2023/09/04 01:51:25;;;;;;;4.00;3.58;;;16.60;79.50;;;15.57;100.00;96958.66;6113562;23;20395;-66
2023/09/04 01:53:50;;;;;;;4.20;3.70;;;16.60;79.80;;;15.53;100.00;96960.09;6113073;23;20396;-65
2023/09/04 01:56:16;;;;;;;5.05;3.97;;;16.60;79.90;;;15.51;100.00;96964.78;6115176;23;20499;-65
2023/09/04 01:58:42;;;;;;;4.30;3.90;;;16.50;80.10;;;15.47;100.00;96968.84;6112267;23;20029;-65
2023/09/04 02:01:08;;;;;;;5.40;4.07;;;16.50;80.20;;;15.44;100.00;96968.44;6114377;23;20006;-66
2023/09/04 02:03:33;;;;;;;5.18;4.10;;;16.40;80.30;;;15.43;100.00;96970.25;6087394;23;20044;-66
2023/09/04 02:05:59;;;;;;;16.17;13.18;;;16.40;80.30;;;15.41;100.00;96976.78;6112793;23;20077;-65
2023/09/04 02:08:25;;;;;;;12.15;10.88;;;16.50;80.40;;;15.39;100.00;96970.84;6087798;23;20022;-66
2023/09/04 02:10:51;;;;;;;9.18;6.88;;;16.50;80.20;;;15.40;100.00;96967.19;6108545;23;20076;-65
2023/09/04 02:13:16;;;;;;;7.82;6.22;;;16.40;80.00;;;15.36;100.00;96963.28;6112040;23;20009;-66
2023/09/04 02:15:42;;;;;;;19.27;16.77;;;16.40;80.00;;;15.32;100.00;96971.63;6110475;23;20002;-65
2023/09/04 02:18:08;;;;;;;13.48;11.27;;;16.40;80.00;;;15.29;100.00;96961.44;6113028;23;20064;-68
2023/09/04 02:20:34;;;;;;;7.72;6.55;;;16.40;79.90;;;15.26;100.00;96961.81;6110483;23;20016;-66
2023/09/04 02:23:00;;;;;;;5.50;4.45;;;16.30;80.10;;;15.22;100.00;96951.81;6110743;23;20085;-64
2023/09/04 02:25:25;;;;;;;5.47;4.35;;;16.30;80.00;;;15.20;100.00;96957.31;6062894;23;20021;-66
2023/09/04 02:27:51;;;;;;;4.38;3.97;;;16.30;79.90;;;15.17;100.00;96949.75;6086832;23;20011;-66
2023/09/04 02:30:18;;;;;;;6.10;3.90;;;16.30;79.90;;;15.16;100.00;96942.84;6112522;23;20342;-66
2023/09/04 02:32:44;;;;;;;5.50;4.07;;;16.20;79.70;;;15.13;100.00;96945.84;6086082;23;20006;-66
2023/09/04 02:35:09;;;;;;;6.22;3.97;;;16.20;79.60;;;15.11;100.00;96949.72;6089878;23;20355;-67
2023/09/04 02:37:35;;;;;;;4.13;3.63;;;16.20;79.70;;;15.07;100.00;96951.13;6066473;23;20521;-66
2023/09/04 02:40:01;;;;;;;5.25;4.07;;;16.10;79.80;;;15.05;100.00;96940.72;6088184;23;20088;-66
2023/09/04 02:42:30;;;;;;;7.57;4.28;;;16.10;79.90;;;15.04;100.00;96936.44;6111631;23;20029;-66
2023/09/04 02:44:55;;;;;;;44.17;39.28;;;16.10;80.10;;;15.03;100.00;96934.81;6065806;23;20005;-65
2023/09/04 02:47:21;;;;;;;26.25;23.45;;;16.10;80.30;;;14.99;100.00;96937.03;6118285;23;20405;-65
2023/09/04 02:49:47;;;;;;;17.08;14.45;;;16.10;80.40;;;14.98;100.00;96938.06;6092834;23;20065;-65
2023/09/04 02:52:13;;;;;;;22.15;18.50;;;16.10;80.50;;;14.94;100.00;96939.47;6090359;23;20084;-66
2023/09/04 02:54:41;;;;;;;9.23;8.10;;;16.00;80.70;;;14.92;100.00;96945.94;6114430;23;20092;-66
2023/09/04 02:57:07;;;;;;;9.48;8.50;;;16.00;80.50;;;14.91;100.00;96947.78;6114407;23;20057;-65
2023/09/04 02:59:36;;;;;;;16.50;14.27;;;15.90;80.70;;;14.89;100.00;96946.34;6085983;23;20473;-64
2023/09/04 03:02:02;;;;;;;36.65;32.70;;;16.00;80.60;;;14.87;100.00;96956.31;6088546;23;20002;-65
2023/09/04 03:04:28;;;;;;;14.45;12.90;;;15.90;80.70;;;14.86;100.00;96954.66;6066835;23;20135;-65
2023/09/04 03:06:54;;;;;;;6.32;5.63;;;15.90;80.80;;;14.85;100.00;96953.03;6067906;23;20081;-66
2023/09/04 03:09:22;;;;;;;6.85;4.93;;;16.00;80.80;;;14.82;100.00;96951.59;6091287;23;20334;-65
2023/09/04 03:11:48;;;;;;;5.75;4.60;;;16.00;80.90;;;14.82;100.00;96958.72;6091635;23;20081;-65
2023/09/04 03:14:15;;;;;;;5.88;4.75;;;15.90;80.90;;;14.81;100.00;96951.78;6091341;23;20021;-65
2023/09/04 03:16:41;;;;;;;5.80;4.60;;;15.90;80.90;;;14.80;100.00;96958.94;6140120;23;20021;-66
2023/09/04 03:19:07;;;;;;;6.03;4.55;;;15.80;80.80;;;14.78;100.00;96958.31;6115644;23;20748;-66
2023/09/04 03:21:32;;;;;;;7.88;4.75;;;15.80;80.50;;;14.77;100.00;96955.84;6090029;23;20036;-65
2023/09/04 03:23:58;;;;;;;5.15;4.40;;;15.80;80.30;;;14.75;100.00;96963.19;6088938;23;20017;-65
2023/09/04 03:26:24;;;;;;;6.78;4.43;;;15.80;80.30;;;14.73;100.00;96960.72;6113158;23;20064;-65
2023/09/04 03:28:50;;;;;;;6.07;4.70;;;15.80;80.20;;;14.69;100.00;96962.09;6113537;23;20013;-66
2023/09/04 03:31:15;;;;;;;5.95;4.55;;;15.70;80.30;;;14.66;100.00;96965.13;6111226;23;20072;-65
2023/09/04 03:33:41;;;;;;;5.30;4.65;;;15.70;80.30;;;14.62;100.00;96967.34;6086081;23;20017;-65
2023/09/04 03:36:07;;;;;;;5.40;4.90;;;15.70;80.60;;;14.60;100.00;96960.63;6112697;23;20006;-66
2023/09/04 03:38:33;;;;;;;5.43;4.78;;;15.70;80.50;;;14.58;100.00;96962.66;6110440;23;20128;-65
2023/09/04 03:40:58;;;;;;;5.65;4.88;;;15.60;80.50;;;14.55;100.00;96963.84;6089123;23;20738;-66
2023/09/04 03:43:24;;;;;;;5.65;5.15;;;15.60;80.40;;;14.52;100.00;96964.25;6085981;23;20017;-65
2023/09/04 03:45:50;;;;;;;6.63;5.03;;;15.60;80.30;;;14.50;100.00;96971.56;6089292;23;20013;-66
2023/09/04 03:48:16;;;;;;;7.45;4.78;;;15.60;80.00;;;14.46;100.00;96970.28;6088486;23;20020;-66
2023/09/04 03:50:41;;;;;;;5.60;4.70;;;15.60;79.80;;;14.45;100.00;96973.94;6137456;23;20005;-65
2023/09/04 03:53:07;;;;;;;6.32;5.65;;;15.60;79.90;;;14.44;100.00;96972.31;6089180;23;20017;-67
2023/09/04 03:55:33;;;;;;;7.35;5.97;;;15.50;80.10;;;14.44;100.00;96971.47;6063263;23;20026;-66
2023/09/04 03:57:58;;;;;;;5.70;5.10;;;15.50;80.20;;;14.42;100.00;96974.28;6088881;23;20040;-66
2023/09/04 04:00:24;;;;;;;6.50;5.88;;;15.50;80.40;;;14.41;100.00;96972.66;6064718;23;20005;-65
2023/09/04 04:02:51;;;;;;;6.38;5.78;;;15.50;80.40;;;14.40;100.00;96971.03;6112195;23;20025;-66
2023/09/04 04:05:18;;;;;;;6.28;5.30;;;15.50;80.40;;;14.39;100.00;96974.69;6112804;23;20132;-67
2023/09/04 04:07:44;;;;;;;7.25;5.57;;;15.50;80.40;;;14.38;100.00;96967.75;6064480;23;20005;-66
2023/09/04 04:10:10;;;;;;;7.40;5.65;;;15.50;80.50;;;14.38;100.00;96967.75;6113602;23;20094;-67
2023/09/04 04:12:36;;;;;;;6.22;5.63;;;15.50;80.50;;;14.32;100.00;96974.63;6109149;23;20005;-66
2023/09/04 04:15:05;;;;;;;6.93;6.15;;;15.40;80.50;;;14.31;100.00;96982.75;6086584;23;20025;-67
2023/09/04 04:17:30;;;;;;;6.30;5.63;;;15.40;80.60;;;14.28;100.00;96983.16;6066102;23;20028;-67
2023/09/04 04:19:56;;;;;;;5.53;5.03;;;15.30;80.70;;;14.26;100.00;96988.63;6088277;23;20376;-69
2023/09/04 04:22:23;;;;;;;6.22;5.63;;;15.40;80.70;;;14.26;100.00;96979.88;6088344;23;20051;-68
2023/09/04 04:24:49;;;;;;;6.43;5.82;;;15.40;80.60;;;14.25;100.00;96972.91;6088687;23;20431;-68
2023/09/04 04:27:15;;;;;;;5.88;5.28;;;15.40;80.50;;;14.24;100.00;96976.56;6089198;23;20010;-68
2023/09/04 04:29:43;;;;;;;6.93;6.25;;;15.40;80.40;;;14.24;100.00;96976.56;6114110;23;20076;-71
2023/09/04 04:32:08;;;;;;;6.63;5.90;;;15.40;80.30;;;14.23;100.00;96973.09;6087804;23;20060;-68
2023/09/04 04:34:34;;;;;;;7.72;6.35;;;15.40;80.30;;;14.24;100.00;96976.56;6088350;23;20025;-69
2023/09/04 04:37:01;;;;;;;6.72;6.03;;;15.40;80.40;;;14.24;100.00;96981.88;6088820;23;21474;-67
2023/09/04 04:39:27;;;;;;;6.07;5.53;;;15.40;80.40;;;14.25;100.00;96978.22;6113285;23;20395;-67
2023/09/04 04:41:53;;;;;;;9.70;6.53;;;15.40;80.40;;;14.23;100.00;96977.59;6108429;23;20288;-66
2023/09/04 04:44:19;;;;;;;8.05;6.30;;;15.40;80.60;;;14.22;100.00;96983.88;6089971;23;20029;-68
2023/09/04 04:46:48;;;;;;;6.78;6.03;;;15.40;80.70;;;14.23;100.00;96986.34;6088221;23;20017;-65
2023/09/04 04:49:20;;;;;;;6.40;5.80;;;15.40;80.80;;;14.23;100.00;96990.81;6112567;23;20002;-67
2023/09/04 04:51:46;;;;;;;7.28;6.07;;;15.40;80.90;;;14.26;100.00;96987.81;6111926;23;20536;-65
2023/09/04 04:54:11;;;;;;;9.82;6.05;;;15.50;80.80;;;14.27;100.00;96984.16;6110432;23;20026;-65
2023/09/04 04:56:39;;;;;;;7.30;6.45;;;15.50;80.90;;;14.28;100.00;96978.69;6063482;23;20010;-65
2023/09/04 04:59:05;;;;;;;6.82;6.22;;;15.60;80.80;;;14.32;100.00;96982.56;6111617;23;20010;-65
2023/09/04 05:01:31;;;;;;;7.00;6.25;;;15.60;80.80;;;14.33;100.00;96978.91;6064635;23;20092;-65
2023/09/04 05:03:57;;;;;;;7.45;6.47;;;15.60;81.00;;;14.38;100.00;96988.94;6085526;23;20600;-65
2023/09/04 05:06:22;;;;;;;7.47;6.75;;;15.60;81.20;;;14.40;100.00;96987.72;6086730;23;20093;-65
2023/09/04 05:08:48;;;;;;;7.10;6.40;;;15.80;80.90;;;14.45;100.00;96994.28;6088362;23;20017;-65
2023/09/04 05:11:14;;;;;;;6.85;6.15;;;15.80;81.00;;;14.49;100.00;96985.00;6111308;23;20014;-65
2023/09/04 05:13:40;;;;;;;7.78;6.40;;;15.80;80.80;;;14.53;100.00;96984.41;6112550;23;20072;-66
2023/09/04 05:16:05;;;;;;;6.45;5.82;;;15.90;80.80;;;14.56;100.00;96989.31;6112781;23;20440;-66
2023/09/04 05:18:32;;;;;;;7.35;6.47;;;15.90;80.70;;;14.61;100.00;96989.56;6091047;23;20006;-65
2023/09/04 05:20:57;;;;;;;8.25;6.47;;;16.00;80.40;;;14.64;100.00;96988.34;6089947;23;20368;-67
2023/09/04 05:23:23;;;;;;;7.22;6.28;;;16.10;80.30;;;14.69;100.00;96996.53;6089393;23;19998;-66
2023/09/04 05:25:50;;;;;;;6.97;6.28;;;16.10;80.40;;;14.74;100.00;96985.38;6114079;23;20044;-66
2023/09/04 05:28:16;;;;;;;7.15;6.45;;;16.10;80.00;;;14.78;100.00;96991.91;6113350;23;20022;-66
2023/09/04 05:30:41;;;;;;;7.07;6.00;;;16.20;79.90;;;14.84;100.00;96991.13;6113884;23;20067;-66
2023/09/04 05:33:07;;;;;;;7.13;5.97;;;16.30;80.00;;;14.91;100.00;96984.03;6113270;23;20525;-67
2023/09/04 05:35:33;;;;;;;8.10;6.53;;;16.30;79.90;;;14.96;100.00;96993.06;6111422;23;20076;-67
2023/09/04 05:37:58;;;;;;;8.25;6.28;;;16.50;79.90;;;15.04;100.00;96999.22;6065755;23;20045;-67
2023/09/04 05:40:25;;;;;;;6.75;6.00;;;16.50;79.70;;;15.09;100.00;97008.22;6138930;23;20086;-68
2023/09/04 05:42:51;;;;;;;6.38;5.65;;;16.60;79.60;;;15.14;100.00;97011.09;6111290;23;20016;-67
2023/09/04 05:45:17;;;;;;;6.25;5.65;;;16.60;79.30;;;15.20;100.00;97005.03;6088483;23;20063;-68
2023/09/04 05:47:43;;;;;;;8.57;6.10;;;16.70;79.20;;;15.27;100.00;97005.88;6112096;23;20014;-68
2023/09/04 05:50:10;;;;;;;6.20;5.60;;;16.80;79.20;;;15.32;100.00;97003.44;6066451;23;20052;-68
2023/09/04 05:52:36;;;;;;;7.13;6.15;;;16.80;79.20;;;15.38;100.00;96996.53;6088594;23;20001;-68
2023/09/04 05:55:03;;;;;;;7.60;5.93;;;16.90;78.80;;;15.46;100.00;96998.22;6064754;23;20029;-70
2023/09/04 05:57:29;;;;;;;6.68;6.05;;;17.10;78.60;;;15.54;100.00;96990.09;6088705;23;20013;-67
2023/09/04 05:59:54;;;;;;;6.75;6.05;;;17.10;78.40;;;15.59;100.00;96985.03;6085124;23;20016;-67
2023/09/04 06:02:20;;;;;;;9.43;6.85;;;17.20;78.30;;;15.66;100.00;96987.72;6111353;23;20037;-68
2023/09/04 06:04:46;;;;;;;7.93;6.88;;;17.30;78.20;;;15.72;100.00;96989.56;6087232;23;20009;-70
2023/09/04 06:07:14;;;;;;;8.10;6.80;;;17.30;78.10;;;15.77;100.00;96985.28;6109975;23;20010;-69
2023/09/04 06:09:40;;;;;;;10.05;6.78;;;17.40;77.90;;;15.85;100.00;96992.28;6114447;23;20443;-67
2023/09/04 06:12:08;;;;;;;6.85;6.15;;;17.50;77.80;;;15.90;100.00;97003.91;6087926;23;20022;-67
2023/09/04 06:14:34;;;;;;;7.38;6.68;;;17.60;77.70;;;15.95;100.00;97002.50;6090475;23;20014;-67
2023/09/04 06:17:00;;;;;;;7.50;6.70;;;17.60;77.50;;;16.00;100.00;97002.69;6113880;23;20017;-68
2023/09/04 06:19:26;;;;;;;6.50;5.90;;;17.60;77.50;;;16.07;100.00;96990.25;6113135;23;20014;-66
2023/09/04 06:21:51;;;;;;;11.02;6.60;;;17.70;77.60;;;16.14;100.00;96996.41;6110941;23;20033;-65
2023/09/04 06:24:17;;;;;;;6.70;6.10;;;17.90;77.20;;;16.21;100.00;97002.53;6112646;23;20028;-70
2023/09/04 06:26:43;;;;;;;8.20;6.80;;;17.90;76.90;;;16.24;100.00;96999.47;6112567;23;20404;-68
2023/09/04 06:29:08;;;;;;;7.22;6.22;;;17.90;76.70;;;16.30;100.00;97009.31;6089210;23;20455;-69
2023/09/04 06:31:34;;;;;;;7.80;6.75;;;18.00;77.10;;;16.36;100.00;97005.84;6113783;23;20096;-68
2023/09/04 06:34:03;;;;;;;6.88;6.15;;;18.10;77.00;;;16.44;100.00;97002.16;6089486;23;20355;-69
2023/09/04 06:36:29;;;;;;;7.13;6.43;;;18.10;76.90;;;16.50;100.00;97006.66;6090957;23;20014;-69
2023/09/04 06:38:55;;;;;;;6.97;6.28;;;18.20;76.70;;;16.58;100.00;97000.34;6088768;23;20077;-68
2023/09/04 06:41:21;;;;;;;7.03;6.32;;;18.20;76.90;;;16.65;100.00;97006.44;6086945;23;20080;-69
2023/09/04 06:43:47;;;;;;;7.45;6.82;;;18.30;77.20;;;16.72;100.00;97010.75;6113069;23;20002;-69
2023/09/04 06:46:13;;;;;;;9.05;6.43;;;18.40;76.20;;;16.79;100.00;97008.13;6090136;23;20010;-67
2023/09/04 06:48:39;;;;;;;7.88;6.43;;;18.40;76.10;;;16.86;100.00;97008.94;6090285;23;20526;-68
2023/09/04 06:51:05;;;;;;;8.13;6.40;;;18.60;76.10;;;16.97;100.00;97004.81;6063578;23;20006;-68
2023/09/04 06:53:31;;;;;;;7.80;6.88;;;18.60;75.80;;;17.07;100.00;97011.34;6064733;23;20034;-69
2023/09/04 06:55:57;;;;;;;7.38;5.97;;;18.80;75.90;;;17.16;100.00;96995.97;6113647;23;20443;-69
2023/09/04 06:58:26;;;;;;;6.68;6.00;;;18.90;75.60;;;17.27;100.00;96997.19;6089546;23;20010;-68
2023/09/04 07:00:52;;;;;;;12.93;7.95;;;19.10;75.10;;;17.40;100.00;97005.94;6089550;23;20100;-69
2023/09/04 07:03:18;;;;;;;11.20;7.85;;;19.30;74.50;;;17.54;100.00;96997.91;6089545;23;20080;-69
2023/09/04 07:05:44;;;;;;;9.13;7.05;;;19.50;73.90;;;17.69;100.00;97001.19;6089183;23;20002;-67
2023/09/04 07:08:10;;;;;;;9.55;6.78;;;19.60;73.00;;;17.85;100.00;97008.66;6089542;23;20264;-68
2023/09/04 07:10:35;;;;;;;9.27;6.97;;;19.80;72.60;;;18.01;100.00;97005.50;6105788;23;20037;-68
2023/09/04 07:13:02;;;;;;;7.65;6.80;;;20.00;72.40;;;18.19;100.00;97012.78;6113444;23;19998;-68
2023/09/04 07:15:28;;;;;;;11.90;9.65;;;20.40;71.70;;;18.43;100.00;97013.03;6089257;23;20068;-69
2023/09/04 07:17:53;;;;;;;6.80;6.10;;;20.80;70.70;;;18.69;100.00;97009.38;6089901;23;20447;-69
2023/09/04 07:20:19;;;;;;;6.03;5.32;;;21.40;69.00;;;18.96;100.00;97011.59;6089591;23;20002;-69
2023/09/04 07:22:45;;;;;;;7.50;5.82;;;21.90;67.10;;;19.20;100.00;97012.59;6113323;23;20009;-67
2023/09/04 07:25:11;;;;;;;8.15;5.90;;;22.20;65.50;;;19.54;100.00;97005.06;6114343;23;20620;-68
2023/09/04 07:27:37;;;;;;;7.93;5.00;;;22.80;64.20;;;19.91;100.00;97016.50;6113899;23;20093;-68
2023/09/04 07:30:03;;;;;;;7.10;5.15;;;23.20;62.70;;;20.33;100.00;97030.72;6089703;23;20006;-71
2023/09/04 07:32:29;;;;;;;6.93;5.47;;;23.60;60.90;;;20.72;100.00;97034.69;6112554;23;20096;-69
2023/09/04 07:34:56;;;;;;;5.90;4.97;;;23.80;59.10;;;21.15;98.45;97036.25;6088197;23;20056;-67
2023/09/04 07:37:25;;;;;;;7.38;4.60;;;24.30;58.50;;;21.60;94.49;97032.97;6065967;23;20005;-70
2023/09/04 07:39:52;;;;;;;5.75;4.70;;;24.60;57.50;;;22.08;92.92;97032.63;6088352;23;20005;-69
2023/09/04 07:42:17;;;;;;;6.72;4.88;;;25.00;56.90;;;22.46;89.76;97034.69;6110291;23;20016;-70
2023/09/04 07:44:43;;;;;;;5.10;4.47;;;25.30;55.50;;;22.81;87.60;97026.44;6116120;23;20076;-70
2023/09/04 07:47:09;;;;;;;5.80;4.45;;;25.60;55.10;;;23.15;85.92;97021.88;6112333;23;19998;-70
2023/09/04 07:49:35;;;;;;;6.70;4.55;;;25.80;54.90;;;23.47;82.77;97024.72;6111057;23;20013;-69
2023/09/04 07:52:00;;;;;;;5.20;4.50;;;26.10;53.70;;;23.73;82.45;97033.97;6112608;23;20021;-70
2023/09/04 07:54:26;;;;;;;5.82;4.40;;;26.30;53.90;;;24.04;81.41;97027.09;6112445;23;20479;-69
2023/09/04 07:56:52;;;;;;;6.53;4.45;;;26.50;54.40;;;24.31;78.31;97018.25;6113216;23;20471;-69
2023/09/04 07:59:18;;;;;;;9.80;4.13;;;26.70;52.30;;;24.57;77.34;97016.63;6112082;23;20002;-70
2023/09/04 08:01:43;;;;;;;5.38;4.55;;;27.10;52.40;;;24.86;76.13;97014.44;6088869;23;20447;-66
2023/09/04 08:04:09;;;;;;;6.13;4.32;;;27.30;51.60;;;25.06;74.78;97014.63;6111861;23;20782;-67
2023/09/04 08:06:35;;;;;;;5.30;4.40;;;27.60;50.90;;;25.23;73.67;97025.25;6114208;23;20090;-67
2023/09/04 08:09:01;;;;;;;6.68;4.13;;;27.60;50.60;;;25.38;73.03;97017.25;6088961;23;20010;-66
2023/09/04 08:11:27;;;;;;;5.97;4.20;;;27.90;50.40;;;25.53;71.21;97013.81;6137302;23;20067;-66
2023/09/04 08:13:52;;;;;;;4.57;3.95;;;28.00;48.90;;;25.68;70.59;97011.25;6113133;23;20084;-66
2023/09/04 08:16:18;;;;;;;5.03;3.90;;;28.20;49.40;;;25.78;70.06;97005.06;6112287;23;20025;-68
2023/09/04 08:18:44;;;;;;;7.53;4.35;;;28.30;49.20;;;25.97;69.01;97008.91;6088375;23;20005;-69
2023/09/04 08:21:10;;;;;;;5.18;4.20;;;28.60;48.10;;;26.07;67.99;97000.06;6086886;23;20008;-69
2023/09/04 08:23:35;;;;;;;4.53;3.70;;;28.60;47.60;;;26.21;67.44;96999.28;6113593;23;20120;-67
2023/09/04 08:26:02;;;;;;;4.30;3.50;;;28.80;47.70;;;26.39;66.78;96999.88;6063641;23;21127;-66
2023/09/04 08:28:28;;;;;;;4.68;3.95;;;29.00;47.70;;;26.61;65.71;96991.53;6111032;23;20037;-66
2023/09/04 08:30:54;;;;;;;4.57;3.63;;;29.30;46.70;;;26.79;65.38;96981.00;6063544;23;20026;-66
2023/09/04 08:33:20;;;;;;;5.50;3.53;;;29.40;46.70;;;26.96;64.21;96982.63;6087341;23;20069;-66
2023/09/04 08:35:45;;;;;;;4.68;3.40;;;29.60;46.60;;;27.07;64.02;96962.66;6089156;23;20108;-68
2023/09/04 08:38:11;;;;;;;4.70;3.83;;;29.70;45.60;;;27.18;62.33;96964.25;6112811;23;20002;-68
2023/09/04 08:40:40;;;;;;;4.72;3.65;;;29.80;45.70;;;27.30;61.97;96966.63;6112600;23;20006;-67
2023/09/04 08:43:09;;;;;;;6.63;4.05;;;29.80;46.00;;;27.42;59.98;96957.16;6086297;23;20029;-67
2023/09/04 08:45:36;;;;;;;5.22;4.40;;;30.10;44.70;;;27.62;60.88;96968.97;6089176;23;20013;-66
2023/09/04 08:48:04;;;;;;;6.28;4.85;;;30.30;44.80;;;27.75;59.51;96950.28;6088183;23;20032;-67
2023/09/04 08:50:30;;;;;;;3.85;3.40;;;30.40;44.70;;;27.88;59.04;96943.47;6113006;23;20009;-67
2023/09/04 08:52:56;;;;;;;4.22;3.63;;;30.50;43.90;;;27.97;58.34;96941.78;6090693;23;20103;-67
2023/09/04 08:55:21;;;;;;;7.20;4.18;;;30.60;43.10;;;28.04;58.59;96944.97;6065859;23;20025;-66
2023/09/04 08:57:47;;;;;;;6.75;4.60;;;30.60;44.10;;;28.21;58.27;96946.50;6089884;23;20084;-68
2023/09/04 09:00:15;;;;;;;3.70;3.35;;;30.70;44.20;;;28.34;57.87;96948.63;6090552;23;20490;-67
2023/09/04 09:02:45;;;;;;;3.47;2.95;;;30.90;43.70;;;28.48;57.33;96944.16;6090052;23;20073;-68
2023/09/04 09:05:18;;;;;;;4.93;2.80;;;31.10;43.30;;;28.60;54.46;96933.78;6115018;23;20021;-68
2023/09/04 09:07:46;;;;;;;6.22;3.20;;;31.10;42.70;;;28.78;56.94;96953.13;6091581;23;20451;-67
2023/09/04 09:10:17;;;;;;;4.95;3.47;;;31.40;43.30;;;28.93;55.28;96944.88;6114402;23;20006;-66
2023/09/04 09:12:42;;;;;;;9.00;3.95;;;31.50;43.30;;;29.00;55.93;96945.38;6090109;23;20013;-67
2023/09/04 09:15:08;;;;;;;4.20;2.90;;;31.50;42.20;;;29.10;56.16;96949.88;6139501;23;20096;-67
2023/09/04 09:17:34;;;;;;;5.53;2.80;;;31.60;42.70;;;29.31;55.34;96947.75;6114957;23;20010;-68
2023/09/04 09:20:00;;;;;;;6.93;2.95;;;31.90;42.10;;;29.46;55.17;96953.03;6089235;23;20089;-67
2023/09/04 09:22:25;;;;;;;2.88;2.47;;;32.10;42.20;;;29.64;54.91;96954.16;6114752;23;20401;-66
2023/09/04 09:24:59;;;;;;;4.43;2.67;;;32.30;41.80;;;29.87;51.50;96920.75;6089815;23;20471;-67
2023/09/04 09:27:30;;;;;;;2.95;2.40;;;32.50;40.50;;;30.04;50.14;96904.00;6140175;23;20012;-68
2023/09/04 09:29:59;;;;;;;3.35;2.60;;;32.70;39.60;;;30.23;51.56;96921.09;6066271;23;20038;-67
2023/09/04 09:32:30;;;;;;;4.20;2.45;;;32.80;39.10;;;30.46;49.33;96912.03;6114441;23;20018;-68
2023/09/04 09:34:57;;;;;;;10.43;2.72;;;33.00;39.70;;;30.67;50.14;96909.00;6113929;23;20075;-65
2023/09/04 09:37:25;;;;;;;3.65;2.67;;;33.10;39.40;;;30.85;49.67;96908.16;6090172;23;20625;-66
2023/09/04 09:39:51;;;;;;;4.93;2.47;;;33.30;39.20;;;31.08;49.17;96901.75;6090228;23;20104;-67
2023/09/04 09:42:16;;;;;;;3.50;2.72;;;33.60;37.90;;;31.16;48.31;96891.25;6086881;23;20085;-67
2023/09/04 09:44:42;;;;;;;3.33;2.28;;;33.30;37.60;;;31.26;47.89;96893.81;6090056;23;20017;-66
2023/09/04 09:47:10;;;;;;;3.53;2.33;;;33.70;38.30;;;31.43;46.84;96877.69;6088883;23;20011;-66
2023/09/04 09:49:36;;;;;;;5.82;2.42;;;33.80;38.40;;;31.65;47.58;96891.34;6090359;23;20013;-67
2023/09/04 09:52:05;;;;;;;2.42;2.00;;;34.10;37.30;;;31.88;44.83;96870.47;6089365;23;20474;-67
2023/09/04 09:54:44;;;;;;;2.40;2.03;;;34.50;36.70;;;32.04;44.85;96865.47;6089228;23;20044;-66
2023/09/04 09:57:13;;;;;;;2.90;2.50;;;34.70;36.90;;;32.27;45.46;96883.47;6064714;23;20104;-66
2023/09/04 09:59:42;;;;;;;5.10;2.63;;;35.00;36.10;;;32.48;44.68;96861.19;6090016;23;20353;-68
2023/09/04 10:02:08;;;;;;;3.33;2.40;;;35.20;36.30;;;32.65;44.99;96866.72;6112734;23;20058;-67
2023/09/04 10:04:35;;;;;;;4.68;3.35;;;35.30;36.00;;;32.80;45.08;96869.06;6090366;23;20038;-67
2023/09/04 10:07:04;;;;;;;4.25;3.20;;;35.50;35.80;;;33.08;43.54;96855.25;6113427;23;20024;-67
2023/09/04 10:09:39;;;;;;;3.20;2.53;;;35.90;35.40;;;33.43;41.72;96835.16;6139406;23;20013;-68